Time;durP1;ratioP1;P1;durP2;ratioP2;P2;SDS_P1;SDS_P2;PMS_P1;PMS_P2;Temp;Humidity;BMP_temperature;BMP_pressure;BME280_temperature;BME280_humidity;BME280_pressure;Samples;Min_cycle;Max_cycle;Signal;HPM_P1;HPM_P2
2023/06/13 00:01:04;;;;;;;7.97;3.97;;;;;;;22.41;82.04;100327.19;4934638;29;20079;-76
2023/06/13 00:03:33;;;;;;;5.47;4.20;;;;;;;22.62;82.86;100339.16;4934641;29;20111;-76
2023/06/13 00:06:02;;;;;;;5.38;4.03;;;;;;;22.52;82.72;100338.56;4934671;29;20485;-76
2023/06/13 00:08:31;;;;;;;5.68;4.00;;;;;;;22.59;85.34;100339.88;4934597;29;20048;-76
2023/06/13 00:10:59;;;;;;;7.28;4.53;;;;;;;22.62;83.60;100339.94;4934446;29;20048;-76
2023/06/13 00:13:27;;;;;;;5.20;4.70;;;;;;;22.55;82.82;100339.81;4934480;29;20052;-76
2023/06/13 00:15:58;;;;;;;4.55;4.13;;;;;;;22.48;82.81;100334.06;4934418;29;20062;-76
2023/06/13 00:18:31;;;;;;;8.35;4.40;;;;;;;22.55;82.21;100337.03;4934460;29;20372;-76
2023/06/13 00:20:59;;;;;;;6.07;3.97;;;;;;;22.65;82.63;100335.63;4934529;29;20052;-76
2023/06/13 00:23:27;;;;;;;6.57;4.38;;;;;;;22.41;83.28;100332.75;4933573;29;20062;-76
2023/06/13 00:25:56;;;;;;;4.85;4.15;;;;;;;22.33;81.81;100350.50;4917474;29;20052;-76
2023/06/13 00:28:24;;;;;;;4.70;4.15;;;;;;;22.35;83.35;100342.59;4934383;29;20040;-76
2023/06/13 00:30:52;;;;;;;4.47;4.07;;;;;;;22.28;81.03;100332.09;4934285;29;20043;-76
2023/06/13 00:33:20;;;;;;;6.13;4.40;;;;;;;22.37;79.74;100329.09;4934138;29;20051;-76
2023/06/13 00:35:48;;;;;;;4.20;3.75;;;;;;;22.15;79.58;100322.28;4936589;29;20052;-76
2023/06/13 00:38:20;;;;;;;6.15;3.88;;;;;;;22.04;79.65;100322.03;4905300;29;20047;-77
2023/06/13 00:40:51;;;;;;;4.60;3.88;;;;;;;21.95;79.71;100327.00;4936579;29;20055;-76
2023/06/13 00:43:19;;;;;;;4.07;3.50;;;;;;;21.68;79.63;100329.56;4937668;29;20051;-76
2023/06/13 00:45:47;;;;;;;3.83;3.47;;;;;;;21.54;80.04;100347.53;4937221;29;20063;-76
2023/06/13 00:48:16;;;;;;;4.57;3.67;;;;;;;21.41;81.00;100335.69;4936406;29;20486;-75
2023/06/13 00:50:44;;;;;;;3.70;3.17;;;;;;;21.37;80.37;100337.59;4937519;29;20052;-76
2023/06/13 00:53:17;;;;;;;4.20;3.47;;;;;;;21.47;80.55;100350.16;4920747;29;20047;-77
2023/06/13 00:55:47;;;;;;;6.87;3.57;;;;;;;21.40;82.20;100341.63;4937442;29;20050;-74
2023/06/13 00:58:16;;;;;;;5.18;3.53;;;;;;;21.59;79.80;100347.28;4920482;29;20483;-75
2023/06/13 01:00:45;;;;;;;4.55;3.13;;;;;;;21.63;79.50;100336.22;4937612;29;20408;-76
2023/06/13 01:03:17;;;;;;;3.15;2.85;;;;;;;21.37;79.97;100348.72;4937466;29;20044;-76
2023/06/13 01:05:47;;;;;;;3.65;2.95;;;;;;;21.31;81.17;100347.38;4936150;29;20055;-75
2023/06/13 01:08:21;;;;;;;3.80;3.03;;;;;;;20.94;83.77;100343.69;4937294;29;20058;-76
2023/06/13 01:11:06;;;;;;;2.60;2.40;;;;;;;20.70;85.37;100330.69;4937246;29;20063;-77
2023/06/13 01:13:47;;;;;;;2.95;2.75;;;;;;;20.67;87.51;100343.34;4937333;29;20044;-75
2023/06/13 01:16:33;;;;;;;3.80;3.45;;;;;;;20.67;87.78;100350.84;4936009;29;20051;-75
2023/06/13 01:19:08;;;;;;;3.58;2.80;;;;;;;20.81;87.36;100350.44;4937209;29;20052;-75
2023/06/13 01:21:39;;;;;;;5.00;2.72;;;;;;;20.61;87.44;100347.53;4937070;29;20071;-75
2023/06/13 01:24:19;;;;;;;3.10;2.75;;;;;;;20.90;86.99;100344.75;4937060;29;20402;-76
2023/06/13 01:26:50;;;;;;;3.17;2.88;;;;;;;20.75;87.05;100332.41;4920110;29;20044;-76
2023/06/13 01:29:20;;;;;;;3.28;2.78;;;;;;;20.62;88.53;100329.69;4937011;29;20051;-75
2023/06/13 01:31:56;;;;;;;2.92;2.72;;;;;;;20.58;89.13;100339.09;4936869;29;20517;-75
2023/06/13 01:34:25;;;;;;;4.05;3.20;;;;;;;20.43;89.39;100340.66;4936655;29;20059;-75
2023/06/13 01:36:53;;;;;;;3.00;2.80;;;;;;;20.17;89.68;100339.09;4936860;29;20494;-75
2023/06/13 01:39:22;;;;;;;3.33;2.85;;;;;;;20.33;89.49;100334.44;4920012;29;20048;-75
2023/06/13 01:41:51;;;;;;;3.92;2.90;;;;;;;20.58;88.01;100319.63;4936671;29;20392;-75
2023/06/13 01:44:21;;;;;;;4.22;3.08;;;;;;;20.18;89.27;100332.41;4935521;29;20056;-76
2023/06/13 01:47:05;;;;;;;5.55;3.00;;;;;;;20.22;90.44;100327.75;4919390;29;20046;-76
2023/06/13 01:50:04;;;;;;;3.58;2.63;;;;;;;20.10;90.35;100340.50;4936700;29;20395;-75
2023/06/13 01:52:50;;;;;;;3.03;2.72;;;;;;;20.11;89.67;100338.56;4936550;29;20501;-75
2023/06/13 01:55:44;;;;;;;2.72;2.45;;;;;;;20.10;90.21;100340.50;4903553;29;20850;-75
2023/06/13 01:58:24;;;;;;;3.55;2.80;;;;;;;20.10;89.56;100343.28;4936608;29;20055;-75
2023/06/13 02:00:57;;;;;;;2.83;2.53;;;;;;;20.01;90.32;100337.88;4919613;29;20660;-76
2023/06/13 02:03:26;;;;;;;3.60;2.72;;;;;;;20.06;89.00;100322.94;4935131;29;20491;-76
2023/06/13 02:05:54;;;;;;;3.53;2.50;;;;;;;19.95;89.19;100316.25;4936269;29;20052;-76
2023/06/13 02:08:22;;;;;;;2.95;2.40;;;;;;;20.19;87.96;100322.91;4936308;29;20051;-75
2023/06/13 02:10:50;;;;;;;3.63;2.45;;;;;;;20.16;88.36;100312.50;4936245;29;20044;-76
2023/06/13 02:13:18;;;;;;;6.13;2.58;;;;;;;20.12;88.34;100318.78;4934792;29;20051;-76
2023/06/13 02:15:46;;;;;;;2.67;2.47;;;;;;;20.12;88.54;100331.84;4919028;29;20052;-76
2023/06/13 02:18:15;;;;;;;1.70;1.60;;;;;;;19.92;88.92;100325.25;4936058;29;20043;-76
2023/06/13 02:20:43;;;;;;;1.90;1.80;;;;;;;20.19;85.59;100331.25;4936074;29;20487;-76
2023/06/13 02:23:12;;;;;;;1.85;1.40;;;;;;;20.22;85.40;100342.47;4935928;29;20055;-76
2023/06/13 02:25:40;;;;;;;1.90;1.63;;;;;;;20.37;84.78;100340.09;4918932;29;20074;-76
2023/06/13 02:28:08;;;;;;;1.45;1.35;;;;;;;20.30;85.21;100331.56;4935876;29;20062;-76
2023/06/13 02:30:36;;;;;;;1.48;1.20;;;;;;;20.41;84.08;100333.50;4935851;29;20048;-75
2023/06/13 02:33:04;;;;;;;1.67;1.25;;;;;;;20.38;83.74;100341.72;4920855;29;20056;-76
2023/06/13 02:35:32;;;;;;;1.80;1.65;;;;;;;20.29;83.55;100347.44;4935514;29;20052;-75
2023/06/13 02:38:00;;;;;;;2.03;1.38;;;;;;;20.11;84.66;100344.13;4935734;29;20044;-75
2023/06/13 02:40:29;;;;;;;2.38;1.50;;;;;;;20.25;83.64;100327.84;4935623;29;20043;-76
2023/06/13 02:42:57;;;;;;;2.70;0.98;;;;;;;20.32;83.57;100332.03;4934407;29;20388;-75
2023/06/13 02:45:25;;;;;;;1.60;1.38;;;;;;;20.31;83.28;100328.44;4935657;29;20063;-75
2023/06/13 02:47:54;;;;;;;1.20;1.10;;;;;;;20.30;83.24;100326.00;4935612;29;20079;-76
2023/06/13 02:50:23;;;;;;;2.15;1.35;;;;;;;20.29;82.20;100327.97;4934452;29;20066;-77
2023/06/13 02:52:51;;;;;;;0.75;0.75;;;;;;;20.26;83.00;100337.84;4950136;29;20486;-76
2023/06/13 02:55:20;;;;;;;2.03;1.05;;;;;;;20.29;82.32;100330.75;4934189;29;20055;-75
2023/06/13 02:57:48;;;;;;;1.20;1.10;;;;;;;20.35;81.48;100328.53;4933522;29;20063;-75
2023/06/13 03:00:17;;;;;;;2.25;1.10;;;;;;;20.40;82.14;100326.28;4935414;29;20066;-76
2023/06/13 03:02:51;;;;;;;1.42;1.05;;;;;;;20.29;82.54;100339.09;4934209;29;20052;-76
2023/06/13 03:05:22;;;;;;;0.73;0.73;;;;;;;20.60;80.97;100342.31;4933990;29;20043;-76
2023/06/13 03:07:56;;;;;;;0.85;0.85;;;;;;;20.42;80.39;100348.19;4950062;29;20059;-75
2023/06/13 03:10:25;;;;;;;1.23;0.93;;;;;;;20.35;80.03;100329.34;4950098;29;20058;-76
2023/06/13 03:12:53;;;;;;;1.17;1.08;;;;;;;20.54;80.19;100336.22;4935036;29;20063;-76
2023/06/13 03:15:23;;;;;;;1.05;0.95;;;;;;;20.36;81.92;100344.84;4949511;29;20483;-76
2023/06/13 03:17:52;;;;;;;0.63;0.63;;;;;;;20.36;80.55;100342.06;4933591;29;20063;-76
2023/06/13 03:20:21;;;;;;;1.00;0.80;;;;;;;20.33;80.64;100344.75;4933996;29;20391;-75
2023/06/13 03:22:52;;;;;;;0.90;0.90;;;;;;;20.23;82.11;100334.94;4933894;29;20048;-75
2023/06/13 03:25:20;;;;;;;2.15;0.98;;;;;;;20.06;81.26;100342.41;4935038;29;20040;-75
2023/06/13 03:27:50;;;;;;;0.77;0.75;;;;;;;20.02;82.34;100349.81;4935077;29;20049;-75
2023/06/13 03:30:18;;;;;;;1.00;0.80;;;;;;;19.96;82.25;100348.44;4934913;29;20058;-75
2023/06/13 03:32:46;;;;;;;0.80;0.80;;;;;;;19.87;83.18;100349.34;4949435;29;20059;-75
2023/06/13 03:35:15;;;;;;;1.10;1.00;;;;;;;19.90;83.60;100358.13;4917751;29;20048;-74
2023/06/13 03:37:43;;;;;;;1.20;1.10;;;;;;;20.03;83.39;100353.41;4918110;29;20044;-75
2023/06/13 03:40:12;;;;;;;2.42;1.30;;;;;;;20.01;83.00;100356.53;4933712;29;20047;-75
2023/06/13 03:42:40;;;;;;;1.27;1.17;;;;;;;19.69;84.54;100357.09;4917722;29;20052;-74
2023/06/13 03:45:09;;;;;;;1.65;1.25;;;;;;;19.68;85.80;100344.38;4933606;29;20051;-75
2023/06/13 03:47:37;;;;;;;1.67;1.58;;;;;;;19.79;85.49;100344.72;4917861;29;20050;-74
2023/06/13 03:50:06;;;;;;;1.48;1.38;;;;;;;19.84;85.88;100341.69;4934933;29;20051;-75
2023/06/13 03:52:34;;;;;;;1.23;1.10;;;;;;;19.92;86.55;100351.06;4934788;29;20137;-75
2023/06/13 03:55:02;;;;;;;1.23;1.10;;;;;;;19.84;89.08;100344.47;4934640;29;20411;-75
2023/06/13 03:57:31;;;;;;;1.65;1.30;;;;;;;19.99;89.95;100328.31;4934353;29;20056;-75
2023/06/13 04:00:00;;;;;;;1.67;1.40;;;;;;;19.80;89.42;100315.78;4933495;29;20062;-75
2023/06/13 04:02:28;;;;;;;1.38;1.27;;;;;;;19.76;90.37;100333.50;4917255;29;20048;-75
2023/06/13 04:04:57;;;;;;;1.58;1.17;;;;;;;19.73;90.27;100318.34;4934718;29;20054;-75
2023/06/13 04:07:25;;;;;;;1.38;1.27;;;;;;;19.74;90.11;100331.06;4934642;29;20043;-75
2023/06/13 04:09:54;;;;;;;2.03;1.65;;;;;;;19.92;89.41;100326.06;4936192;29;20048;-76
2023/06/13 04:12:22;;;;;;;2.25;1.65;;;;;;;19.70;89.16;100313.50;4937858;29;20063;-75
2023/06/13 04:14:50;;;;;;;2.42;1.42;;;;;;;19.77;87.20;100316.50;4938330;29;20043;-75
2023/06/13 04:17:18;;;;;;;1.67;1.58;;;;;;;20.21;87.11;100329.75;4921418;29;20052;-75
2023/06/13 04:19:48;;;;;;;1.35;1.20;;;;;;;20.39;85.29;100321.91;4937403;29;20052;-76
2023/06/13 04:22:16;;;;;;;1.40;1.30;;;;;;;20.09;85.24;100311.13;4921125;29;20055;-75
2023/06/13 04:24:46;;;;;;;1.83;1.35;;;;;;;20.20;84.41;100316.19;4938330;29;20403;-75
2023/06/13 04:27:19;;;;;;;2.00;1.45;;;;;;;20.23;84.90;100332.19;4921216;29;20066;-76
2023/06/13 04:29:48;;;;;;;;;;;;;;;20.27;84.53;100322.78;4921663;29;20058;-75
2023/06/13 04:32:18;;;;;;;1.40;1.30;;;;;;;20.25;85.63;100304.84;4938074;29;19930;-75
2023/06/13 04:34:52;;;;;;;2.30;1.42;;;;;;;20.26;84.47;100318.38;4937666;29;20051;-75
2023/06/13 04:37:25;;;;;;;2.25;1.55;;;;;;;20.23;85.82;100307.16;4938081;29;20070;-75
2023/06/13 04:39:53;;;;;;;6.30;1.20;;;;;;;20.48;84.48;100315.41;4937735;29;20063;-75
2023/06/13 04:42:29;;;;;;;1.25;1.15;;;;;;;20.43;83.90;100321.22;4937874;29;20471;-76
2023/06/13 04:45:01;;;;;;;1.48;1.35;;;;;;;20.59;82.89;100326.81;4938011;29;20059;-74
2023/06/13 04:47:31;;;;;;;1.55;1.45;;;;;;;20.58;82.39;100328.75;4937525;29;20063;-74
2023/06/13 04:50:21;;;;;;;1.75;1.27;;;;;;;20.76;81.56;100322.88;4944267;29;20043;-78
2023/06/13 04:52:54;;;;;;;1.20;1.10;;;;;;;21.06;81.15;100340.00;4956690;29;20047;-78
2023/06/13 04:55:25;;;;;;;3.10;1.70;;;;;;;21.06;80.15;100350.31;4939759;29;20047;-79
2023/06/13 04:57:54;;;;;;;2.65;1.80;;;;;;;21.05;78.96;100345.94;4955587;29;20048;-79
2023/06/13 05:00:24;;;;;;;2.08;1.40;;;;;;;21.06;79.07;100353.09;4938790;29;20050;-79
2023/06/13 05:02:55;;;;;;;1.48;1.38;;;;;;;20.93;78.36;100357.94;4955974;28;20521;-79
2023/06/13 05:05:24;;;;;;;1.45;1.35;;;;;;;20.97;78.42;100361.63;4956521;29;20516;-80
2023/06/13 05:07:57;;;;;;;1.67;1.30;;;;;;;20.96;78.87;100359.22;4956436;28;20062;-80
2023/06/13 05:10:27;;;;;;;1.70;1.23;;;;;;;21.05;78.34;100354.28;4955923;29;20051;-78
2023/06/13 05:12:55;;;;;;;2.33;0.90;;;;;;;21.13;77.77;100375.56;4956137;29;20054;-82
2023/06/13 05:15:24;;;;;;;2.15;0.90;;;;;;;21.03;77.46;100371.34;4956123;29;20047;-79
2023/06/13 05:17:56;;;;;;;1.58;1.00;;;;;;;20.82;77.43;100377.06;4956481;29;20039;-80
2023/06/13 05:20:28;;;;;;;1.33;0.90;;;;;;;20.84;77.02;100391.44;4955241;28;20494;-79
2023/06/13 05:22:56;;;;;;;5.18;1.00;;;;;;;20.71;76.83;100381.56;4951021;29;20035;-80
2023/06/13 05:25:24;;;;;;;1.58;1.05;;;;;;;20.87;76.55;100373.28;4945322;29;20047;-80
2023/06/13 05:27:55;;;;;;;1.25;1.15;;;;;;;21.01;76.17;100368.09;4959523;29;21979;-84
2023/06/13 05:30:24;;;;;;;1.38;1.10;;;;;;;21.33;75.24;100375.66;4952899;29;20058;-82
2023/06/13 05:32:53;;;;;;;1.05;0.98;;;;;;;21.49;72.17;100364.50;4940946;28;20155;-82
2023/06/13 05:35:21;;;;;;;1.13;1.00;;;;;;;21.48;72.26;100374.84;4929544;29;20047;-81
2023/06/13 05:40:47;;;;;;;1.58;1.48;;;;;;;21.56;73.04;100372.25;4954913;29;20051;-79
2023/06/13 05:43:19;;;;;;;1.38;1.05;;;;;;;21.81;72.01;100383.19;4932259;29;20050;-79
2023/06/13 05:45:48;;;;;;;0.88;0.70;;;;;;;21.81;71.28;100385.97;4954846;29;20047;-82
2023/06/13 05:48:16;;;;;;;1.15;1.08;;;;;;;21.68;71.90;100385.25;4954567;29;20040;-82
2023/06/13 05:50:44;;;;;;;0.95;0.95;;;;;;;21.68;71.08;100383.28;4955271;28;20066;-82
2023/06/13 05:53:12;;;;;;;1.52;0.90;;;;;;;21.54;72.19;100385.69;4954817;29;20043;-82
2023/06/13 05:55:40;;;;;;;1.35;1.17;;;;;;;21.82;72.14;100396.78;4954962;28;20047;-82
2023/06/13 05:58:08;;;;;;;1.75;1.10;;;;;;;21.60;72.20;100382.28;4938311;29;20058;-82
2023/06/13 06:00:36;;;;;;;1.20;1.10;;;;;;;21.70;71.94;100380.97;4955118;28;20513;-82
2023/06/13 06:03:06;;;;;;;3.55;1.52;;;;;;;21.93;71.50;100385.88;4954519;28;20048;-82
2023/06/13 06:05:34;;;;;;;1.75;0.80;;;;;;;21.99;71.28;100381.63;4954772;28;20047;-83
2023/06/13 06:08:03;;;;;;;1.75;1.65;;;;;;;22.11;71.73;100388.25;4936827;29;20047;-81
2023/06/13 06:10:31;;;;;;;1.40;1.30;;;;;;;21.84;73.23;100368.53;4954759;28;20051;-83
2023/06/13 06:12:59;;;;;;;2.53;1.60;;;;;;;21.83;74.33;100397.56;4937134;29;20406;-82
2023/06/13 06:15:27;;;;;;;2.15;1.63;;;;;;;21.94;74.33;100378.31;4952778;28;20050;-81
2023/06/13 06:17:55;;;;;;;4.13;1.67;;;;;;;22.12;73.59;100387.06;4918211;29;20051;-81
2023/06/13 06:20:23;;;;;;;1.60;1.50;;;;;;;22.00;74.08;100377.66;4934785;29;20048;-82
2023/06/13 06:22:51;;;;;;;4.57;2.33;;;;;;;21.93;73.42;100373.91;4951174;29;20051;-82
2023/06/13 06:25:42;;;;;;;1.70;1.60;;;;;;;21.94;74.06;100364.41;4953861;29;20051;-82
2023/06/13 06:28:10;;;;;;;2.92;1.77;;;;;;;22.12;72.76;100362.81;4937123;29;20047;-83
2023/06/13 06:30:38;;;;;;;1.98;1.77;;;;;;;22.36;72.13;100376.84;4933423;29;20040;-79
2023/06/13 06:33:06;;;;;;;3.15;1.60;;;;;;;22.08;73.92;100366.66;4951033;28;20048;-79
2023/06/13 06:35:35;;;;;;;2.33;1.80;;;;;;;22.36;73.99;100374.88;4953442;29;20058;-79
2023/06/13 06:38:03;;;;;;;2.75;1.90;;;;;;;22.42;73.71;100375.38;4954059;28;20062;-79
2023/06/13 06:40:31;;;;;;;2.90;2.03;;;;;;;22.41;73.38;100377.38;4954194;28;20055;-81
2023/06/13 06:42:59;;;;;;;3.15;2.10;;;;;;;22.25;75.14;100377.41;4953101;29;20506;-78
2023/06/13 06:45:29;;;;;;;1.85;1.73;;;;;;;22.14;74.08;100376.38;4935652;29;20044;-79
2023/06/13 06:47:58;;;;;;;2.55;2.00;;;;;;;22.22;73.83;100367.00;4953953;29;20070;-78
2023/06/13 06:50:26;;;;;;;2.35;2.08;;;;;;;22.19;73.17;100378.88;4950432;29;20050;-78
2023/06/13 06:52:55;;;;;;;2.05;1.85;;;;;;;22.27;73.13;100377.88;4953135;29;20051;-78
2023/06/13 06:55:23;;;;;;;4.60;2.00;;;;;;;22.14;73.05;100374.41;4932734;29;20047;-79
2023/06/13 06:57:53;;;;;;;1.90;1.77;;;;;;;22.29;72.83;100372.72;4934577;29;20052;-77
2023/06/13 07:00:22;;;;;;;1.83;1.73;;;;;;;22.33;72.29;100383.16;4933197;29;20059;-76
2023/06/13 07:02:54;;;;;;;3.08;1.80;;;;;;;22.24;72.44;100369.44;4940086;29;20047;-76
2023/06/13 07:05:22;;;;;;;3.42;1.75;;;;;;;22.42;71.93;100369.78;4952621;29;20043;-77
2023/06/13 07:07:51;;;;;;;2.33;1.75;;;;;;;22.72;70.99;100380.38;4953181;28;20043;-79
2023/06/13 07:10:22;;;;;;;1.88;1.63;;;;;;;22.68;70.17;100365.56;4952468;28;20043;-78
2023/06/13 07:12:50;;;;;;;2.10;1.90;;;;;;;22.20;70.98;100377.72;4952572;29;20043;-77
2023/06/13 07:15:18;;;;;;;2.78;1.92;;;;;;;22.29;72.23;100372.72;4953009;29;20066;-78
2023/06/13 07:17:46;;;;;;;2.50;1.83;;;;;;;22.01;73.17;100356.19;4952726;29;20070;-79
2023/06/13 07:20:14;;;;;;;2.60;2.28;;;;;;;22.39;73.44;100376.13;4936265;29;20581;-81
2023/06/13 07:22:43;;;;;;;2.20;1.85;;;;;;;22.57;72.21;100370.13;4948248;28;20525;-84
2023/06/13 07:25:11;;;;;;;2.42;1.98;;;;;;;22.56;71.27;100369.31;4948737;29;20051;-67
2023/06/13 07:27:39;;;;;;;2.10;1.77;;;;;;;22.65;71.27;100367.13;4952629;29;20058;-80
2023/06/13 07:30:08;;;;;;;3.10;1.95;;;;;;;22.75;70.66;100357.34;4935780;29;20048;-79
2023/06/13 07:32:36;;;;;;;2.95;2.15;;;;;;;22.93;70.95;100365.25;4952988;29;20047;-79
2023/06/13 07:35:04;;;;;;;3.35;2.08;;;;;;;22.68;71.70;100355.22;4928105;29;20043;-81
2023/06/13 07:37:34;;;;;;;2.92;1.60;;;;;;;22.62;70.20;100344.75;4925620;29;20050;-81
2023/06/13 07:40:04;;;;;;;2.13;1.92;;;;;;;22.89;70.45;100344.81;4929579;29;20052;-81
2023/06/13 07:42:32;;;;;;;2.40;1.80;;;;;;;23.14;70.00;100341.66;4933366;29;20058;-83
2023/06/13 07:45:01;;;;;;;2.03;1.65;;;;;;;22.84;69.71;100353.50;4938457;29;20052;-82
2023/06/13 07:47:29;;;;;;;2.25;1.65;;;;;;;22.95;69.74;100346.13;4937634;29;20538;-83
2023/06/13 07:49:57;;;;;;;5.03;1.70;;;;;;;23.06;69.45;100351.91;4931667;29;20054;-83
2023/06/13 07:52:25;;;;;;;1.80;1.63;;;;;;;23.16;69.25;100339.34;4939329;29;20070;-83
2023/06/13 07:54:53;;;;;;;3.47;1.70;;;;;;;23.31;69.01;100344.00;4922294;29;20063;-83
2023/06/13 07:57:21;;;;;;;2.50;1.60;;;;;;;23.08;68.12;100347.56;4940141;29;20040;-83
2023/06/13 07:59:54;;;;;;;1.90;1.52;;;;;;;23.22;66.20;100335.84;4940263;29;20058;-81
2023/06/13 08:02:23;;;;;;;2.65;1.50;;;;;;;23.42;64.43;100335.00;4939834;29;20510;-81
2023/06/13 08:04:52;;;;;;;1.75;1.08;;;;;;;23.44;64.73;100332.63;4940087;29;20051;-81
2023/06/13 08:07:22;;;;;;;1.38;1.15;;;;;;;23.30;63.92;100333.97;4940464;29;20510;-81
2023/06/13 08:09:50;;;;;;;1.83;1.40;;;;;;;23.10;63.68;100336.03;4922767;29;20063;-81
2023/06/13 08:12:18;;;;;;;1.52;1.30;;;;;;;23.28;64.16;100329.94;4939596;29;20052;-82
2023/06/13 08:14:46;;;;;;;1.08;1.05;;;;;;;23.66;64.15;100344.13;4921183;29;20071;-83
2023/06/13 08:17:15;;;;;;;1.55;1.45;;;;;;;23.58;63.22;100344.03;4921374;29;20074;-84
2023/06/13 08:19:48;;;;;;;1.65;1.55;;;;;;;23.89;63.18;100336.50;4920116;29;20051;-82
2023/06/13 08:22:17;;;;;;;2.40;1.80;;;;;;;23.79;62.94;100342.72;4925637;29;20051;-82
2023/06/13 08:24:48;;;;;;;3.83;1.50;;;;;;;23.65;63.01;100331.34;4939434;29;20505;-82
2023/06/13 08:27:16;;;;;;;1.63;1.50;;;;;;;23.57;63.31;100336.84;4939236;29;20502;-79
2023/06/13 08:29:44;;;;;;;2.88;1.73;;;;;;;23.74;63.15;100340.25;4940197;29;20044;-80
2023/06/13 08:32:12;;;;;;;1.50;1.40;;;;;;;23.57;63.55;100331.25;4940067;29;20047;-87
2023/06/13 08:34:41;;;;;;;2.13;1.50;;;;;;;23.78;63.07;100345.88;4949323;28;20067;-83
2023/06/13 08:37:09;;;;;;;1.30;1.20;;;;;;;23.94;62.88;100354.91;4959318;29;20505;-87
2023/06/13 08:39:37;;;;;;;1.75;1.42;;;;;;;23.74;61.71;100352.25;4959121;29;20054;-81
2023/06/13 08:42:13;;;;;;;1.70;1.30;;;;;;;23.87;62.01;100352.03;4950439;29;20047;-80
2023/06/13 08:44:41;;;;;;;1.38;1.23;;;;;;;23.89;61.78;100353.25;4957031;29;20498;-85
2023/06/13 08:47:12;;;;;;;1.63;1.30;;;;;;;23.80;62.32;100349.91;4957542;28;20047;-86
2023/06/13 08:50:00;;;;;;;1.73;1.60;;;;;;;23.72;61.48;100343.44;4953545;29;20399;-85
2023/06/13 08:52:34;;;;;;;1.42;1.33;;;;;;;23.94;61.85;100342.94;4946170;28;20043;-80
2023/06/13 08:55:05;;;;;;;2.17;1.65;;;;;;;24.16;59.89;100332.88;4956738;28;20047;-83
2023/06/13 08:57:54;;;;;;;1.65;1.55;;;;;;;24.23;59.09;100340.53;4955566;29;20525;-84
2023/06/13 09:00:25;;;;;;;2.38;2.17;;;;;;;24.25;59.05;100346.56;4954580;29;20047;-77
2023/06/13 09:02:55;;;;;;;2.53;2.33;;;;;;;24.58;56.92;100342.16;4954984;29;20596;-78
2023/06/13 09:05:25;;;;;;;1.92;1.75;;;;;;;24.74;56.60;100355.13;4954615;29;20051;-79
2023/06/13 09:07:56;;;;;;;2.20;2.00;;;;;;;24.82;54.76;100351.22;4954766;29;20684;-79
2023/06/13 09:10:44;;;;;;;2.65;2.10;;;;;;;24.41;54.17;100338.78;4948414;29;20051;-80
2023/06/13 09:13:16;;;;;;;2.75;2.55;;;;;;;24.51;54.18;100344.88;4945610;29;20054;-78
2023/06/13 09:15:45;;;;;;;6.07;2.10;;;;;;;24.86;54.00;100340.88;4954634;29;20055;-79
2023/06/13 09:18:16;;;;;;;2.78;2.40;;;;;;;25.13;51.98;100337.13;4955044;29;20035;-78
2023/06/13 09:20:44;;;;;;;2.70;1.98;;;;;;;25.25;51.66;100344.41;4950360;29;20423;-80
2023/06/13 09:23:17;;;;;;;3.58;2.13;;;;;;;25.46;51.42;100341.00;4946531;29;20039;-78
2023/06/13 09:25:47;;;;;;;2.45;2.25;;;;;;;25.52;52.13;100341.44;4954771;29;20483;-80
2023/06/13 10:04:25;;;;;;;2.45;2.25;;;;;;;25.41;51.61;100324.56;4989745;23;20042;-82
2023/06/13 10:06:56;;;;;;;2.33;2.13;;;;;;;25.30;51.20;100313.25;4976246;28;20519;-88
2023/06/13 10:09:25;;;;;;;2.65;2.40;;;;;;;25.60;49.69;100313.13;4976819;28;20046;-83
2023/06/13 10:11:54;;;;;;;3.03;2.50;;;;;;;25.81;50.65;100319.25;4974360;28;20050;-83
2023/06/13 10:14:23;;;;;;;3.38;2.72;;;;;;;25.70;50.99;100308.78;4973991;28;20403;-81
2023/06/13 10:17:03;;;;;;;2.28;2.05;;;;;;;26.29;49.81;100321.09;4956473;28;20058;-83
2023/06/13 10:19:39;;;;;;;2.38;2.15;;;;;;;26.42;48.69;100321.53;4974490;28;20423;-83
2023/06/13 10:22:08;;;;;;;2.50;1.80;;;;;;;26.40;49.39;100310.69;4957094;28;20061;-83
2023/06/13 10:24:38;;;;;;;2.30;2.10;;;;;;;26.51;49.52;100307.13;4974042;28;20042;-83
2023/06/13 10:27:10;;;;;;;2.85;2.45;;;;;;;26.56;48.35;100310.38;4974680;28;20058;-83
2023/06/13 10:30:10;;;;;;;2.95;2.17;;;;;;;26.64;47.28;100308.34;4974440;28;20050;-82
2023/06/13 10:32:56;;;;;;;2.30;2.00;;;;;;;26.91;48.07;100312.81;4974171;28;20051;-83
2023/06/13 10:35:50;;;;;;;2.47;2.10;;;;;;;26.91;46.44;100304.38;4973905;28;20054;-83
2023/06/13 10:38:21;;;;;;;2.50;2.30;;;;;;;26.76;47.79;100312.00;4974067;28;20050;-83
2023/06/13 10:41:33;;;;;;;3.28;1.80;;;;;;;26.82;46.48;100304.78;4974197;28;20050;-83
2023/06/13 10:44:10;;;;;;;2.13;2.03;;;;;;;26.86;47.55;100294.38;4973385;28;20050;-83
2023/06/13 10:46:41;;;;;;;2.47;2.20;;;;;;;26.88;47.29;100296.78;4956453;28;20551;-83
2023/06/13 10:49:18;;;;;;;3.35;2.28;;;;;;;26.94;45.80;100279.16;4956383;28;20050;-83
2023/06/13 10:51:46;;;;;;;2.35;2.15;;;;;;;26.95;46.95;100274.34;4955219;28;20425;-83
2023/06/13 10:54:16;;;;;;;2.70;1.88;;;;;;;27.24;45.43;100277.94;4993889;28;20408;-83
2023/06/13 10:56:58;;;;;;;3.72;2.33;;;;;;;27.48;47.13;100274.72;4980863;28;20058;-83
2023/06/13 10:59:37;;;;;;;2.72;2.47;;;;;;;27.66;45.62;100276.69;4991971;28;20065;-83
2023/06/13 11:02:15;;;;;;;2.50;2.30;;;;;;;27.42;44.64;100270.72;4972542;28;20053;-81
2023/06/13 11:04:50;;;;;;;2.90;2.70;;;;;;;27.54;44.89;100261.84;4985415;28;20047;-82
2023/06/13 11:07:21;;;;;;;2.38;2.00;;;;;;;27.43;45.24;100269.50;4991932;28;20046;-83
2023/06/13 11:10:15;;;;;;;3.30;2.38;;;;;;;27.35;43.73;100271.50;4991372;28;20504;-85
2023/06/13 11:12:44;;;;;;;1.85;1.75;;;;;;;27.14;44.22;100273.16;4974190;28;20385;-84
2023/06/13 11:15:22;;;;;;;2.80;2.40;;;;;;;27.30;44.39;100267.09;4991904;28;20528;-83
2023/06/13 11:18:08;;;;;;;2.33;2.03;;;;;;;27.15;44.25;100279.56;4991650;28;20420;-84
2023/06/13 11:21:06;;;;;;;2.45;2.25;;;;;;;26.56;45.00;100261.84;4992117;28;20046;-83
2023/06/13 11:23:39;;;;;;;3.70;2.47;;;;;;;26.47;44.88;100276.28;4975939;28;20054;-83
2023/06/13 11:26:06;;;;;;;2.30;2.10;;;;;;;26.48;45.83;100274.28;4991875;28;20066;-85
2023/06/13 11:28:34;;;;;;;2.42;2.22;;;;;;;26.45;45.59;100273.06;4991453;28;20051;-87
2023/06/13 11:31:05;;;;;;;2.47;2.25;;;;;;;26.56;45.52;100267.47;4992272;28;20413;-85
2023/06/13 11:33:39;;;;;;;3.28;2.38;;;;;;;26.67;46.13;100268.28;4992406;28;20272;-86
2023/06/13 11:36:08;;;;;;;3.30;2.37;;;;;;;26.60;45.25;100245.03;4974306;28;20037;-84
2023/06/13 11:38:43;;;;;;;3.63;2.25;;;;;;;26.40;44.42;100253.81;4991466;28;20039;-85
2023/06/13 11:41:11;;;;;;;3.60;2.13;;;;;;;26.46;45.00;100252.22;4974076;28;20050;-85
2023/06/13 11:43:40;;;;;;;2.97;2.67;;;;;;;26.60;44.96;100240.22;4974493;28;20401;-84
2023/06/13 11:46:07;;;;;;;3.30;2.45;;;;;;;26.69;46.10;100256.66;4990976;28;20047;-86
2023/06/13 11:48:35;;;;;;;2.33;2.13;;;;;;;26.69;45.39;100249.03;4990582;28;20042;-85
2023/06/13 11:51:19;;;;;;;2.83;2.38;;;;;;;26.78;44.61;100239.44;4991165;28;20069;-84
2023/06/13 11:53:56;;;;;;;2.80;2.35;;;;;;;26.94;45.98;100241.88;4991086;28;20493;-85
2023/06/13 11:56:25;;;;;;;2.67;2.40;;;;;;;27.01;44.88;100241.84;5000564;28;20404;-85
2023/06/13 11:58:55;;;;;;;1.80;1.70;;;;;;;27.00;44.63;100245.88;4974413;28;20046;-85
2023/06/13 12:01:26;;;;;;;2.28;2.00;;;;;;;26.74;44.44;100231.03;4991333;28;20477;-84
2023/06/13 12:03:58;;;;;;;2.53;2.10;;;;;;;27.06;44.43;100213.38;4990869;28;20380;-85
2023/06/13 12:06:27;;;;;;;1.85;1.70;;;;;;;26.98;44.21;100216.59;4991790;28;20039;-85
2023/06/13 12:08:59;;;;;;;2.42;2.22;;;;;;;27.26;44.33;100215.75;4991641;28;20049;-86
2023/06/13 12:11:29;;;;;;;2.67;2.45;;;;;;;27.40;44.03;100228.16;4992064;28;20047;-86
2023/06/13 12:14:00;;;;;;;3.85;2.50;;;;;;;27.44;43.65;100228.94;4986928;28;20042;-85
2023/06/13 12:16:36;;;;;;;2.95;1.98;;;;;;;27.46;44.44;100232.97;4979962;28;20054;-87
2023/06/13 12:19:07;;;;;;;2.70;2.38;;;;;;;27.57;42.06;100209.66;4991784;28;20052;-85
2023/06/13 12:21:36;;;;;;;2.45;2.25;;;;;;;27.85;43.13;100208.75;4992358;28;20050;-85